createdAt,value
2023-02-16T04:18:28.042Z,57.97
2023-02-16T04:20:56.059Z,58.28
2023-02-16T04:23:24.068Z,60.75
2023-02-16T04:25:52.053Z,53.55
2023-02-16T04:28:20.064Z,61.58
2023-02-16T04:30:48.161Z,49.38
2023-02-16T04:33:16.270Z,58.58
2023-02-16T04:35:45.662Z,49.55
2023-02-16T04:38:13.701Z,59.97
2023-02-16T04:40:41.891Z,54.15
2023-02-16T04:43:09.931Z,55.17
2023-02-16T04:45:37.929Z,50.95
2023-02-16T04:48:06.615Z,51.50
2023-02-16T04:50:34.680Z,58.42
2023-02-16T04:53:04.596Z,59.33
2023-02-16T04:55:32.594Z,60.15
2023-02-16T04:58:00.590Z,53.28
2023-02-16T05:00:28.570Z,55.22
2023-02-16T05:02:56.590Z,55.13
2023-02-16T05:05:24.586Z,53.70
2023-02-16T05:07:52.609Z,58.40
2023-02-16T05:10:22.113Z,57.35
2023-02-16T05:13:07.729Z,58.33
2023-02-16T05:15:35.772Z,61.17
2023-02-16T05:18:03.857Z,58.45
2023-02-16T05:20:45.775Z,55.58
2023-02-16T05:23:13.826Z,58.58
2023-02-16T05:25:43.216Z,52.10
2023-02-16T05:28:11.243Z,57.70
2023-02-16T05:30:39.336Z,55.70
2023-02-16T05:33:07.414Z,63.13
2023-02-16T05:35:35.675Z,57.80
2023-02-16T05:40:49.020Z,58.10
2023-02-16T05:43:17.412Z,58.70
2023-02-16T05:45:45.533Z,58.97
2023-02-16T05:48:13.608Z,61.45
2023-02-16T05:50:41.753Z,58.33
2023-02-16T05:53:09.937Z,59.40
2023-02-16T05:55:37.989Z,58.00
2023-02-16T05:58:07.571Z,55.92
2023-02-16T06:00:36.631Z,60.67
2023-02-16T06:03:05.063Z,60.33
2023-02-16T06:05:33.202Z,56.80
2023-02-16T06:08:01.280Z,55.03
2023-02-16T06:10:29.476Z,57.17
2023-02-16T06:12:57.943Z,62.55
2023-02-16T06:15:27.402Z,59.97
2023-02-16T06:17:55.520Z,59.20
2023-02-16T06:20:23.630Z,61.92
2023-02-16T06:22:51.804Z,57.63
2023-02-16T06:25:20.763Z,58.83
2023-02-16T06:27:50.091Z,60.20
2023-02-16T06:30:19.283Z,65.13
2023-02-16T06:32:48.770Z,67.70
2023-02-16T06:35:16.978Z,67.70
2023-02-16T06:37:45.279Z,59.70
2023-02-16T06:40:15.301Z,62.15
2023-02-16T06:42:43.710Z,62.78
2023-02-16T06:45:12.017Z,62.05
2023-02-16T06:47:40.346Z,63.97
2023-02-16T06:50:11.335Z,70.00
2023-02-16T06:52:39.563Z,64.10
2023-02-16T06:55:08.426Z,70.85
2023-02-16T06:57:36.628Z,62.03
2023-02-16T07:00:07.249Z,66.85
2023-02-16T07:02:35.719Z,66.82
2023-02-16T07:05:03.826Z,58.20
2023-02-16T07:07:33.288Z,60.22
2023-02-16T07:10:02.777Z,64.32
2023-02-16T07:12:31.268Z,63.72
2023-02-16T07:14:59.332Z,65.10
2023-02-16T07:17:27.452Z,61.17
2023-02-16T07:19:56.341Z,69.25
2023-02-16T07:22:25.466Z,60.65
2023-02-16T07:24:57.294Z,62.60
2023-02-16T07:27:26.210Z,62.55
2023-02-16T07:29:54.390Z,61.00
2023-02-16T07:32:22.596Z,56.08
2023-02-16T07:34:50.728Z,56.38
2023-02-16T07:37:18.828Z,57.40
2023-02-16T07:39:46.923Z,59.42
2023-02-16T07:42:16.359Z,53.63
2023-02-16T07:44:44.489Z,59.03
2023-02-16T07:47:13.548Z,56.90
2023-02-16T07:49:41.761Z,56.70
2023-02-16T07:52:09.852Z,57.03
2023-02-16T07:54:38.044Z,53.08
2023-02-16T07:57:06.109Z,55.50
2023-02-16T07:59:35.624Z,51.15
2023-02-16T08:02:03.866Z,56.67
2023-02-16T08:04:32.037Z,55.50
2023-02-16T08:07:00.216Z,58.33
2023-02-16T08:09:28.544Z,54.42
2023-02-16T08:11:56.618Z,57.95
2023-02-16T08:14:24.714Z,54.28
2023-02-16T08:16:56.357Z,55.08
2023-02-16T08:19:25.029Z,52.33
2023-02-16T08:21:53.152Z,54.97
2023-02-16T08:24:21.286Z,61.53
2023-02-16T08:26:50.032Z,53.70
2023-02-16T08:29:19.970Z,52.60
2023-02-16T08:31:48.394Z,54.13
2023-02-16T08:34:19.348Z,54.60
2023-02-16T08:36:54.127Z,58.35
2023-02-16T08:39:24.190Z,54.72
2023-02-16T08:41:52.782Z,55.70
2023-02-16T08:44:22.692Z,48.60
2023-02-16T08:46:52.249Z,50.70
2023-02-16T08:49:24.087Z,52.83
2023-02-16T08:51:54.778Z,55.10
2023-02-16T08:54:26.601Z,52.92
2023-02-16T08:56:56.029Z,51.70
2023-02-16T08:59:27.265Z,47.88
2023-02-16T09:01:56.668Z,58.50
2023-02-16T09:04:27.544Z,51.08
2023-02-16T09:06:56.438Z,46.78
2023-02-16T09:09:24.523Z,54.42
2023-02-16T09:11:52.615Z,55.78
2023-02-16T09:14:21.622Z,45.08
2023-02-16T09:16:50.026Z,50.65
2023-02-16T09:19:19.692Z,49.38
2023-02-16T09:21:50.741Z,49.88
2023-02-16T09:24:19.259Z,50.67
2023-02-16T09:26:48.076Z,53.13
2023-02-16T09:29:16.277Z,60.30
2023-02-16T09:31:45.647Z,47.45
2023-02-16T09:34:18.489Z,53.83
2023-02-16T09:36:48.354Z,48.53
2023-02-16T09:39:17.598Z,48.60
2023-02-16T09:42:01.900Z,49.88
2023-02-16T09:44:37.980Z,49.00
2023-02-16T09:47:11.037Z,51.95
2023-02-16T09:52:14.744Z,43.08
2023-02-16T09:54:47.267Z,51.15
2023-02-16T09:57:21.200Z,46.90
2023-02-16T09:59:53.560Z,40.88
2023-02-16T10:02:49.170Z,48.10
2023-02-16T10:05:23.120Z,45.65
2023-02-16T10:08:04.364Z,47.90
2023-02-16T10:10:38.706Z,46.33
2023-02-16T10:13:15.386Z,40.60
2023-02-16T10:15:45.728Z,44.22
2023-02-16T10:18:22.089Z,39.72
2023-02-16T10:20:53.442Z,42.40
2023-02-16T10:23:34.136Z,36.45
2023-02-16T10:26:07.216Z,39.97
2023-02-16T10:31:14.383Z,45.30
2023-02-16T10:33:44.898Z,41.35
2023-02-16T10:36:17.923Z,38.38
2023-02-16T10:41:22.192Z,30.85
2023-02-16T10:43:54.345Z,38.03
2023-02-16T10:46:25.122Z,29.40
2023-02-16T10:48:54.567Z,34.08
2023-02-16T10:51:27.396Z,27.40
2023-02-16T10:54:00.425Z,32.95
2023-02-16T10:59:20.374Z,24.50
2023-02-16T11:01:51.134Z,30.92
2023-02-16T11:04:37.521Z,27.13
2023-02-16T11:07:08.533Z,31.48
2023-02-16T11:09:38.897Z,30.02
2023-02-16T11:12:27.133Z,29.70
2023-02-16T11:14:57.527Z,28.17
2023-02-16T11:17:26.919Z,28.08
2023-02-16T11:19:58.561Z,30.42
2023-02-16T11:25:22.032Z,29.30
2023-02-16T11:27:56.022Z,28.77
2023-02-16T11:30:33.570Z,28.90
2023-02-16T11:33:03.126Z,30.15
2023-02-16T11:35:33.333Z,32.30
2023-02-16T11:38:01.657Z,33.55
2023-02-16T11:40:33.322Z,39.60
2023-02-16T11:43:02.721Z,31.80
2023-02-16T11:45:32.506Z,32.08
2023-02-16T11:48:03.363Z,35.25
2023-02-16T11:50:35.420Z,35.65
2023-02-16T11:53:16.491Z,33.08
2023-02-16T11:55:48.056Z,31.00
2023-02-16T11:58:19.687Z,35.67
2023-02-16T12:01:03.040Z,33.78
2023-02-16T12:03:45.585Z,35.38
2023-02-16T12:06:27.462Z,32.93
2023-02-16T12:09:13.279Z,34.70
2023-02-16T12:11:50.533Z,32.63
2023-02-16T12:14:30.578Z,33.53
2023-02-16T12:17:05.726Z,35.30
2023-02-16T12:19:39.482Z,36.35
2023-02-16T12:22:17.174Z,35.10
2023-02-16T12:24:52.655Z,34.10
2023-02-16T12:27:26.809Z,36.22
2023-02-16T12:30:00.623Z,38.10
2023-02-16T12:32:37.594Z,36.53
2023-02-16T12:35:18.449Z,33.65
2023-02-16T12:37:49.134Z,34.55
2023-02-16T12:40:24.589Z,37.33
2023-02-16T12:43:04.185Z,39.55
2023-02-16T12:45:36.628Z,32.95
2023-02-16T12:48:31.710Z,31.65
2023-02-16T12:51:01.245Z,36.15
2023-02-16T12:53:34.946Z,36.08
2023-02-16T12:56:06.386Z,32.60
2023-02-16T12:58:39.233Z,35.83
2023-02-16T13:01:13.933Z,36.75
2023-02-16T13:03:47.985Z,33.60
2023-02-16T13:06:21.321Z,32.53
2023-02-16T13:08:53.190Z,35.45
2023-02-16T13:11:23.631Z,34.05
2023-02-16T13:13:54.777Z,36.50
2023-02-16T13:16:30.658Z,30.77
2023-02-16T13:18:59.523Z,35.85
2023-02-16T13:21:51.351Z,33.75
2023-02-16T13:24:28.082Z,33.58
2023-02-16T13:27:13.580Z,30.70
2023-02-16T13:29:53.650Z,33.40
2023-02-16T13:32:42.808Z,32.88
2023-02-16T13:35:41.858Z,31.67
2023-02-16T13:38:33.910Z,31.27
2023-02-16T13:41:31.729Z,37.13
2023-02-16T13:44:02.907Z,30.23
2023-02-16T13:46:34.325Z,34.08
2023-02-16T13:49:03.269Z,31.38
2023-02-16T13:51:43.233Z,38.72
2023-02-16T13:54:25.231Z,32.17
2023-02-16T13:56:53.341Z,32.80
2023-02-16T13:59:57.827Z,32.47
2023-02-16T14:03:05.293Z,32.55
2023-02-16T14:05:37.118Z,35.95
2023-02-16T14:08:20.687Z,30.45
2023-02-16T14:11:12.105Z,32.03
2023-02-16T14:13:51.034Z,34.08
2023-02-16T14:16:33.857Z,29.15
2023-02-16T14:19:05.228Z,35.17
2023-02-16T14:21:40.522Z,34.55
2023-02-16T14:24:12.991Z,34.63
2023-02-16T14:26:56.541Z,28.15
2023-02-16T14:29:27.815Z,31.48
2023-02-16T14:32:01.338Z,33.50
2023-02-16T14:34:31.345Z,28.67
2023-02-16T14:37:32.098Z,31.00
2023-02-16T14:40:15.586Z,30.58
2023-02-16T14:42:55.281Z,29.60
2023-02-16T14:46:13.751Z,34.75
2023-02-16T14:49:26.975Z,30.00
2023-02-16T14:52:19.961Z,33.47
2023-02-16T14:55:14.612Z,27.52
2023-02-16T14:57:45.832Z,29.20
2023-02-16T15:00:20.796Z,31.13
2023-02-16T15:02:57.333Z,35.60
2023-02-16T15:05:28.858Z,31.50
2023-02-16T15:08:05.544Z,31.13
2023-02-16T15:10:35.053Z,28.92
2023-02-16T15:13:03.180Z,29.77
2023-02-16T15:15:42.694Z,29.42
2023-02-16T15:18:15.736Z,30.77
2023-02-16T15:23:19.805Z,41.20
2023-02-16T15:25:58.652Z,30.13
2023-02-16T15:28:29.548Z,27.02
2023-02-16T15:30:59.731Z,33.42
2023-02-16T15:33:34.563Z,26.17
2023-02-16T15:36:04.762Z,30.65
2023-02-16T15:38:34.424Z,23.90
2023-02-16T15:41:06.331Z,25.02
2023-02-16T15:43:37.422Z,27.40
2023-02-16T15:46:08.828Z,29.42
2023-02-16T15:48:38.703Z,29.95
2023-02-16T15:51:13.084Z,25.83
2023-02-16T15:53:46.749Z,31.02
2023-02-16T15:56:38.222Z,29.00
2023-02-16T15:59:20.424Z,25.38
2023-02-16T16:01:48.586Z,28.92
2023-02-16T16:04:20.370Z,26.92
2023-02-16T16:06:51.083Z,30.20
2023-02-16T16:09:24.020Z,28.65
2023-02-16T16:11:55.853Z,25.02
2023-02-16T16:14:24.190Z,27.60
2023-02-16T16:16:52.870Z,26.45
2023-02-16T16:19:22.704Z,28.67
2023-02-16T16:21:54.359Z,32.72
2023-02-16T16:24:34.028Z,28.85
2023-02-16T16:27:06.836Z,29.73
2023-02-16T16:29:38.406Z,29.25
2023-02-16T16:32:08.678Z,24.55
2023-02-16T16:34:38.699Z,28.33
2023-02-16T16:37:08.406Z,27.05
2023-02-16T16:39:39.768Z,28.25
2023-02-16T16:42:18.881Z,32.42
2023-02-16T16:44:58.741Z,29.38
2023-02-16T16:47:33.479Z,26.42
2023-02-16T16:50:05.830Z,24.15
2023-02-16T16:52:43.288Z,28.60
2023-02-16T16:55:29.557Z,27.58
2023-02-16T16:58:01.218Z,25.25
2023-02-16T17:00:34.098Z,31.48
2023-02-16T17:03:02.452Z,27.17
2023-02-16T17:05:30.695Z,33.78
2023-02-16T17:07:58.818Z,29.17
2023-02-16T17:10:27.219Z,24.63
2023-02-16T17:12:59.281Z,30.17
2023-02-16T17:15:36.810Z,29.70
2023-02-16T17:18:06.359Z,31.17
2023-02-16T17:20:35.776Z,39.88
2023-02-16T17:23:06.063Z,93.90
2023-02-16T17:25:35.725Z,24.98
2023-02-16T17:28:06.330Z,25.92
2023-02-16T17:30:34.629Z,29.13
2023-02-16T17:33:02.877Z,28.35
2023-02-16T17:35:32.147Z,28.15
2023-02-16T17:38:00.314Z,24.13
2023-02-16T17:40:28.398Z,38.30
2023-02-16T17:42:56.493Z,51.15
2023-02-16T17:45:25.986Z,39.42
2023-02-16T17:47:54.273Z,52.70
2023-02-16T17:50:22.539Z,32.42
2023-02-16T17:52:57.044Z,38.97
2023-02-16T17:55:25.528Z,46.67
2023-02-16T17:57:55.740Z,42.40
2023-02-16T18:00:25.470Z,30.77
2023-02-16T18:02:53.556Z,30.25
2023-02-16T18:05:21.665Z,30.48
2023-02-16T18:07:49.808Z,28.88
2023-02-16T18:10:21.002Z,27.23
2023-02-16T18:12:49.182Z,25.67
2023-02-16T18:15:17.456Z,26.55
2023-02-16T18:17:46.887Z,25.60
2023-02-16T18:20:16.926Z,27.05
2023-02-16T18:22:45.008Z,27.27
2023-02-16T18:25:13.175Z,26.15
2023-02-16T18:27:41.289Z,25.08
2023-02-16T18:30:10.315Z,25.67
2023-02-16T18:32:38.600Z,24.83
2023-02-16T18:35:08.436Z,21.00
2023-02-16T18:37:36.582Z,23.60
2023-02-16T18:40:05.235Z,27.25
2023-02-16T18:42:33.604Z,27.60
2023-02-16T18:45:01.687Z,23.15
2023-02-16T18:47:29.794Z,22.52
2023-02-16T18:49:57.995Z,25.05
2023-02-16T18:52:27.389Z,27.55
2023-02-16T18:54:55.509Z,28.63
2023-02-16T18:57:23.710Z,25.58
2023-02-16T18:59:51.953Z,21.63
2023-02-16T19:02:20.031Z,23.38
2023-02-16T19:04:48.260Z,25.17
2023-02-16T19:07:16.320Z,22.92
2023-02-16T19:09:45.921Z,24.90
2023-02-16T19:12:13.997Z,30.88
2023-02-16T19:14:42.178Z,27.20
2023-02-16T19:17:10.245Z,27.33
2023-02-16T19:19:38.478Z,28.85
2023-02-16T19:22:06.633Z,27.77
2023-02-16T19:24:34.964Z,23.20
2023-02-16T19:27:04.567Z,29.58
2023-02-16T19:29:32.682Z,30.13
2023-02-16T19:32:00.867Z,30.52
2023-02-16T19:34:29.191Z,24.40
2023-02-16T19:36:57.328Z,27.90
2023-02-16T19:39:25.445Z,30.95
2023-02-16T19:41:53.662Z,24.15
2023-02-16T19:44:23.136Z,27.05
2023-02-16T19:46:51.250Z,25.98
2023-02-16T19:49:20.310Z,23.80
2023-02-16T19:51:48.604Z,27.15
2023-02-16T19:54:16.719Z,30.20
2023-02-16T19:56:44.842Z,22.42
2023-02-16T19:59:12.966Z,19.67
2023-02-16T20:01:42.490Z,27.75
2023-02-16T20:04:12.839Z,32.30
2023-02-16T20:06:41.973Z,23.02
2023-02-16T20:09:12.230Z,23.52
2023-02-16T20:11:40.925Z,29.25
2023-02-16T20:14:09.699Z,27.17
2023-02-16T20:16:37.845Z,22.77
2023-02-16T20:19:07.386Z,33.80
2023-02-16T20:21:35.765Z,25.02
2023-02-16T20:24:06.198Z,26.48
2023-02-16T20:26:36.282Z,28.35
2023-02-16T20:29:05.261Z,25.20
2023-02-16T20:31:35.476Z,26.27
2023-02-16T20:34:04.371Z,27.80
2023-02-16T20:36:34.820Z,27.75
2023-02-16T20:39:02.975Z,24.02
2023-02-16T20:41:31.081Z,28.95
2023-02-16T20:43:59.164Z,23.92
2023-02-16T20:46:27.423Z,31.45
2023-02-16T20:48:55.615Z,32.67
2023-02-16T20:51:23.726Z,32.20
2023-02-16T20:53:53.272Z,29.52
2023-02-16T20:56:23.148Z,26.77
2023-02-16T20:58:52.550Z,28.75
2023-02-16T21:01:23.509Z,28.77
2023-02-16T21:03:51.937Z,28.35
2023-02-16T21:06:20.454Z,29.88
2023-02-16T21:08:48.682Z,27.92
2023-02-16T21:11:18.398Z,30.85
2023-02-16T21:13:46.721Z,25.90
2023-02-16T21:16:15.126Z,28.45
2023-02-16T21:18:43.571Z,24.65
2023-02-16T21:21:15.406Z,25.23
2023-02-16T21:23:43.815Z,25.73
2023-02-16T21:26:12.560Z,25.15
2023-02-16T21:28:42.154Z,28.23
2023-02-16T21:31:12.147Z,22.60
2023-02-16T21:33:40.903Z,21.08
2023-02-16T21:36:11.557Z,26.35
2023-02-16T21:38:40.379Z,22.15
2023-02-16T21:41:27.520Z,23.88
2023-02-16T21:43:59.412Z,20.05
2023-02-16T21:46:29.148Z,24.92
2023-02-16T21:48:57.424Z,16.27
2023-02-16T21:51:28.021Z,20.58
2023-02-16T21:53:56.547Z,18.55
2023-02-16T21:56:29.302Z,18.52
2023-02-16T21:58:59.171Z,18.23
2023-02-16T22:01:29.884Z,21.00
2023-02-16T22:04:00.327Z,18.88
2023-02-16T22:06:32.184Z,19.50
2023-02-16T22:09:00.603Z,19.75
2023-02-16T22:11:28.810Z,21.98
2023-02-16T22:13:58.987Z,21.95
2023-02-16T22:16:28.682Z,16.33
2023-02-16T22:19:01.102Z,15.65
2023-02-16T22:21:30.091Z,17.52
2023-02-16T22:24:00.751Z,20.60
2023-02-16T22:26:30.366Z,16.15
2023-02-16T22:28:59.954Z,15.82
2023-02-16T22:31:28.772Z,16.30
2023-02-16T22:33:57.703Z,14.70
2023-02-16T22:36:26.205Z,12.45
2023-02-16T22:38:54.806Z,12.52
2023-02-16T22:41:23.582Z,14.10
2023-02-16T22:43:54.315Z,12.05
2023-02-16T22:46:24.777Z,10.95
2023-02-16T22:48:53.411Z,13.52
2023-02-16T22:51:22.640Z,14.35
2023-02-16T22:53:50.728Z,12.85
2023-02-16T22:56:19.657Z,9.38
2023-02-16T22:58:48.445Z,11.13
